Marten — 5BNU3 — position and weather

sailwx.info

Track history (hours):
 
Tides and Currents Weather Stations Pressure Air Temp Water Temp Dewpoint Dewpoint Depression Visibility Wind Speed Wind Dir Waves Ship Positions

Marten

Last reported at 2016-Jul-29 16:31 UTC. Time now 2016-Jul-30 03:35 UTC.
Position N 43°39' W 006°10'.

Length 90 m; draft 5 m.

Type: Ship. MMSI: 212376000.

Date/timePositionNaut miles runAvg speedWind from/ knotsBaromVisibWave heightAir tempDewpointWater temp
2016-Jul-29 16:31N 43°39' W 006°10'5 0.2
2016-Jul-28 06:30N 43°38' W 006°03'  
2016-Jul-22 22:31N 49°13' W 004°54'57 8.8
2016-Jul-22 16:05N 49°41' W 003°38'1011.1
2016-Jul-22 15:09N 49°46' W 003°24'711.8
2016-Jul-22 14:33N 49°50' W 003°15'1211.6
2016-Jul-22 13:33N 49°56' W 002°59'1111.0
2016-Jul-22 12:33N 49°60' W 002°43'10 9.7
2016-Jul-22 11:33N 50°03' W 002°29'8 8.1
2016-Jul-22 10:32N 50°05' W 002°17'7 6.9
2016-Jul-22 09:33N 50°07' W 002°07'6 6.4
2016-Jul-22 08:33N 50°09' W 001°57'17 8.1
2016-Jul-22 06:27N 50°14' W 001°32'4812.3
2016-Jul-22 02:33N 50°28' W 000°20'1111.3
2016-Jul-22 01:33N 50°31' W 000°03'1010.1
2016-Jul-22 00:33N 50°34' E 000°12'9 9.1
2016-Jul-21 23:33N 50°37' E 000°26'20 8.6
2016-Jul-21 21:11N 50°48' E 000°53'710.4
2016-Jul-21 20:31N 50°51' E 001°02'1111.6
2016-Jul-21 19:33N 50°59' E 001°16'1212.2
2016-Jul-21 18:33N 51°07' E 001°29'1111.5
2016-Jul-21 17:33N 51°18' E 001°36'1110.8
2016-Jul-21 16:33N 51°27' E 001°26'1212.1
2016-Jul-21 15:33N 51°29' E 001°07'1111.4
2016-Jul-21 14:33N 51°28' E 000°49'5 5.2
2016-Jul-21 13:32N 51°23' E 000°46'0 0.1
2016-Jul-21 12:32N 51°23' E 000°46'0 0.0
2016-Jul-21 11:11N 51°23' E 000°46'0 0.0
2016-Jul-21 10:11N 51°23' E 000°46'0 0.0
2016-Jul-21 09:11N 51°23' E 000°46'0 0.0
2016-Jul-21 08:05N 51°23' E 000°46'0 0.0
2016-Jul-21 07:32N 51°23' E 000°46'0 0.0
2016-Jul-21 06:23N 51°23' E 000°46'0 0.0
2016-Jul-21 05:29N 51°23' E 000°46'0 0.0
2016-Jul-21 04:29N 51°23' E 000°46'0 0.0
2016-Jul-21 03:29N 51°23' E 000°46'0 0.0
2016-Jul-21 02:29N 51°23' E 000°46'0 0.0
2016-Jul-21 01:29N 51°23' E 000°46'0 0.0
2016-Jul-21 00:29N 51°23' E 000°46'0 0.0
2016-Jul-20 23:26N 51°23' E 000°46'0 0.0
2016-Jul-20 22:32N 51°23' E 000°46'0 0.0
2016-Jul-20 21:32N 51°23' E 000°46'0 0.0
2016-Jul-20 20:17N 51°23' E 000°46'0 0.0
2016-Jul-20 19:29N 51°23' E 000°46'0 0.0
2016-Jul-20 17:29N 51°23' E 000°46'0 0.0
2016-Jul-20 16:29N 51°23' E 000°46'0 0.0
2016-Jul-20 15:32N 51°23' E 000°46'0 0.0
2016-Jul-20 14:32N 51°23' E 000°46'0 0.0
2016-Jul-20 13:32N 51°23' E 000°46'0 0.0
2016-Jul-20 12:33N 51°23' E 000°46'4 4.0
2016-Jul-20 11:33N 51°27' E 000°45'7 6.7
2016-Jul-20 10:33N 51°29' E 000°55'9 9.5
2016-Jul-20 09:34N 51°29' E 001°10'9 9.5
2016-Jul-20 08:33N 51°28' E 001°25'3 2.6
2016-Jul-20 07:33N 51°25' E 001°24'0 0.0
2016-Jul-20 06:34N 51°25' E 001°24'0 0.1
2016-Jul-20 05:33N 51°25' E 001°24'0 0.0
2016-Jul-20 04:33N 51°25' E 001°24'0 0.0
2016-Jul-20 03:33N 51°25' E 001°24'0 0.0
2016-Jul-20 02:33N 51°25' E 001°24'0 0.1
2016-Jul-20 00:33N 51°25' E 001°24'0 0.0
2016-Jul-19 23:33N 51°25' E 001°24'0 0.0
2016-Jul-19 22:33N 51°25' E 001°24'0 0.0
2016-Jul-19 21:33N 51°25' E 001°24'0 0.0
2016-Jul-19 20:33N 51°25' E 001°24'0 0.0
2016-Jul-19 19:33N 51°25' E 001°24'0 0.0
2016-Jul-19 18:33N 51°25' E 001°24'0 0.1
2016-Jul-19 17:33N 51°25' E 001°24'0 0.0
2016-Jul-19 16:33N 51°25' E 001°24'  
Track history (hours):
 
Tides and Currents Weather Stations Pressure Air Temp Water Temp Dewpoint Dewpoint Depression Visibility Wind Speed Wind Dir Waves Ship Positions

Marten

Last reported at 2016-Jul-29 16:31 UTC. Time now 2016-Jul-30 03:35 UTC.
Position N 43°39' W 006°10'.

Length 90 m; draft 5 m.

Type: Ship. MMSI: 212376000.

Date/timePositionNaut miles runAvg speedWind from/ knotsBaromVisibWave heightAir tempDewpointWater temp
2016-Jul-29 16:31N 43°39' W 006°10'5 0.2
2016-Jul-28 06:30N 43°38' W 006°03'  
2016-Jul-22 22:31N 49°13' W 004°54'57 8.8
2016-Jul-22 16:05N 49°41' W 003°38'1011.1
2016-Jul-22 15:09N 49°46' W 003°24'711.8
2016-Jul-22 14:33N 49°50' W 003°15'1211.6
2016-Jul-22 13:33N 49°56' W 002°59'1111.0
2016-Jul-22 12:33N 49°60' W 002°43'10 9.7
2016-Jul-22 11:33N 50°03' W 002°29'8 8.1
2016-Jul-22 10:32N 50°05' W 002°17'7 6.9
2016-Jul-22 09:33N 50°07' W 002°07'6 6.4
2016-Jul-22 08:33N 50°09' W 001°57'17 8.1
2016-Jul-22 06:27N 50°14' W 001°32'4812.3
2016-Jul-22 02:33N 50°28' W 000°20'1111.3
2016-Jul-22 01:33N 50°31' W 000°03'1010.1
2016-Jul-22 00:33N 50°34' E 000°12'9 9.1
2016-Jul-21 23:33N 50°37' E 000°26'20 8.6
2016-Jul-21 21:11N 50°48' E 000°53'710.4
2016-Jul-21 20:31N 50°51' E 001°02'1111.6
2016-Jul-21 19:33N 50°59' E 001°16'1212.2
2016-Jul-21 18:33N 51°07' E 001°29'1111.5
2016-Jul-21 17:33N 51°18' E 001°36'1110.8
2016-Jul-21 16:33N 51°27' E 001°26'1212.1
2016-Jul-21 15:33N 51°29' E 001°07'1111.4
2016-Jul-21 14:33N 51°28' E 000°49'5 5.2
2016-Jul-21 13:32N 51°23' E 000°46'0 0.1
2016-Jul-21 12:32N 51°23' E 000°46'0 0.0
2016-Jul-21 11:11N 51°23' E 000°46'0 0.0
2016-Jul-21 10:11N 51°23' E 000°46'0 0.0
2016-Jul-21 09:11N 51°23' E 000°46'0 0.0
2016-Jul-21 08:05N 51°23' E 000°46'0 0.0
2016-Jul-21 07:32N 51°23' E 000°46'0 0.0
2016-Jul-21 06:23N 51°23' E 000°46'0 0.0
2016-Jul-21 05:29N 51°23' E 000°46'0 0.0
2016-Jul-21 04:29N 51°23' E 000°46'0 0.0
2016-Jul-21 03:29N 51°23' E 000°46'0 0.0
2016-Jul-21 02:29N 51°23' E 000°46'0 0.0
2016-Jul-21 01:29N 51°23' E 000°46'0 0.0
2016-Jul-21 00:29N 51°23' E 000°46'0 0.0
2016-Jul-20 23:26N 51°23' E 000°46'0 0.0
2016-Jul-20 22:32N 51°23' E 000°46'0 0.0
2016-Jul-20 21:32N 51°23' E 000°46'0 0.0
2016-Jul-20 20:17N 51°23' E 000°46'0 0.0
2016-Jul-20 19:29N 51°23' E 000°46'0 0.0
2016-Jul-20 17:29N 51°23' E 000°46'0 0.0
2016-Jul-20 16:29N 51°23' E 000°46'0 0.0
2016-Jul-20 15:32N 51°23' E 000°46'0 0.0
2016-Jul-20 14:32N 51°23' E 000°46'0 0.0
2016-Jul-20 13:32N 51°23' E 000°46'0 0.0
2016-Jul-20 12:33N 51°23' E 000°46'4 4.0
2016-Jul-20 11:33N 51°27' E 000°45'7 6.7
2016-Jul-20 10:33N 51°29' E 000°55'9 9.5
2016-Jul-20 09:34N 51°29' E 001°10'9 9.5
2016-Jul-20 08:33N 51°28' E 001°25'3 2.6
2016-Jul-20 07:33N 51°25' E 001°24'0 0.0
2016-Jul-20 06:34N 51°25' E 001°24'0 0.1
2016-Jul-20 05:33N 51°25' E 001°24'0 0.0
2016-Jul-20 04:33N 51°25' E 001°24'0 0.0
2016-Jul-20 03:33N 51°25' E 001°24'0 0.0
2016-Jul-20 02:33N 51°25' E 001°24'0 0.1
2016-Jul-20 00:33N 51°25' E 001°24'0 0.0
2016-Jul-19 23:33N 51°25' E 001°24'0 0.0
2016-Jul-19 22:33N 51°25' E 001°24'0 0.0
2016-Jul-19 21:33N 51°25' E 001°24'0 0.0
2016-Jul-19 20:33N 51°25' E 001°24'0 0.0
2016-Jul-19 19:33N 51°25' E 001°24'0 0.0
2016-Jul-19 18:33N 51°25' E 001°24'0 0.1
2016-Jul-19 17:33N 51°25' E 001°24'0 0.0
2016-Jul-19 16:33N 51°25' E 001°24'  

Dump ship's entire track history